Main page
METAR-TAF:

METAR-TAF

Airports :

Cairo Regional Airport

Cairo, Illinois, United States

latitude: 37-03-52N, longitude: 089-13-10W, elevation: 321 ft

Current weather observation

The report was made 18 minutes ago, at 11:35 UTC
Wind 6 mph from the South
Temperature 39°F
Humidity 75%
Pressure 30.18 in. Hg
Visibility: 10 miles
Scattered clouds at a height of 6000 ft
Overcast at a height of 8000 ft

METAR: KCIR 231135Z AUTO 18005KT 10SM SCT060 OVC080 04/00 A3018 RMK AO2 T00420001

Time: 05:53 (11:53 UTC)


TAF: missing

Weather observations and forecasts of more than 4000 airports (METAR and TAF reports).

The available stations are represented by yellow and red dots on the map.

Hover mouse over dot to see the name of the station.

Then click to see weather observations and forecasts.

To change the map : click on the green buttons with a black cross to zoom in, on the green button with a dash to zoom out, or on the green arrows for adjacent maps.


METAR-TAF: